Corpus Christi, Texas
Current Conditions -  °F | °C
As of 2:51 AM on Saturday 29 Nov 2014 (Local Time) from KCRP Reporting Station
Clear Clear  
Wind Chill: 14°   Ceiling: Unl
Heat Index: 14°   Visibility: 10mi
Dew Point: 13°   Wind: 6mph
Humidity: 93%   Direction: 180°S
Pressure: 30.09"   Gusts: NA
Location:  27.8°N, 97.4°W
Report Text: KCRP 290851Z 18005KT 10SM CLR 14/13 A3009 RMK AO2 SLP189 T01440133 56010
Loading
Personal Weather Stations






























Interactive Weather Map New forecast layout! Learn more

10-Day Weather Forecast

Advertisements
Track Severe Weather on mobile